sensor_id;sensor_type;location;lat;lon;timestamp;P1;durP1;ratioP1;P2;durP2;ratioP2
85705;SDS011;76142;52.376;9.712;2024-03-23T00:53:01;35.58;;;12.63;;
85705;SDS011;76142;52.376;9.712;2024-03-23T00:55:27;31.98;;;11.98;;
85705;SDS011;76142;52.376;9.712;2024-03-23T00:57:52;32.58;;;11.73;;
85705;SDS011;76142;52.376;9.712;2024-03-23T01:00:18;33.92;;;10.57;;
85705;SDS011;76142;52.376;9.712;2024-03-23T01:02:44;31.30;;;11.73;;
85705;SDS011;76142;52.376;9.712;2024-03-23T01:05:09;34.15;;;10.27;;
85705;SDS011;76142;52.376;9.712;2024-03-23T01:07:35;31.50;;;9.80;;
85705;SDS011;76142;52.376;9.712;2024-03-23T01:10:01;33.00;;;9.88;;
85705;SDS011;76142;52.376;9.712;2024-03-23T01:12:27;25.73;;;8.23;;
85705;SDS011;76142;52.376;9.712;2024-03-23T01:14:53;32.53;;;8.93;;
85705;SDS011;76142;52.376;9.712;2024-03-23T01:17:18;23.58;;;8.18;;
85705;SDS011;76142;52.376;9.712;2024-03-23T01:19:44;25.40;;;8.60;;
85705;SDS011;76142;52.376;9.712;2024-03-23T01:22:10;22.92;;;7.97;;
85705;SDS011;76142;52.376;9.712;2024-03-23T01:24:35;29.45;;;7.38;;
85705;SDS011;76142;52.376;9.712;2024-03-23T01:27:01;21.52;;;7.55;;
85705;SDS011;76142;52.376;9.712;2024-03-23T01:29:28;30.75;;;8.25;;
85705;SDS011;76142;52.376;9.712;2024-03-23T01:31:54;21.02;;;6.57;;
85705;SDS011;76142;52.376;9.712;2024-03-23T01:34:19;23.70;;;6.63;;
85705;SDS011;76142;52.376;9.712;2024-03-23T01:36:46;24.77;;;6.30;;
85705;SDS011;76142;52.376;9.712;2024-03-23T01:39:12;17.23;;;6.10;;
85705;SDS011;76142;52.376;9.712;2024-03-23T01:41:39;18.65;;;6.13;;
85705;SDS011;76142;52.376;9.712;2024-03-23T01:44:07;22.20;;;5.55;;
85705;SDS011;76142;52.376;9.712;2024-03-23T01:46:34;18.02;;;5.63;;
85705;SDS011;76142;52.376;9.712;2024-03-23T01:49:03;21.38;;;6.30;;
85705;SDS011;76142;52.376;9.712;2024-03-23T01:51:32;15.65;;;5.32;;
85705;SDS011;76142;52.376;9.712;2024-03-23T01:53:59;15.90;;;5.30;;
85705;SDS011;76142;52.376;9.712;2024-03-23T01:56:28;13.98;;;5.05;;
85705;SDS011;76142;52.376;9.712;2024-03-23T01:58:58;18.20;;;5.60;;
85705;SDS011;76142;52.376;9.712;2024-03-23T02:01:24;18.80;;;5.57;;
85705;SDS011;76142;52.376;9.712;2024-03-23T02:03:50;20.48;;;5.70;;
85705;SDS011;76142;52.376;9.712;2024-03-23T02:06:15;21.50;;;5.88;;
85705;SDS011;76142;52.376;9.712;2024-03-23T02:08:41;16.38;;;5.47;;
85705;SDS011;76142;52.376;9.712;2024-03-23T02:11:08;19.33;;;5.47;;
85705;SDS011;76142;52.376;9.712;2024-03-23T02:13:34;18.23;;;5.68;;
85705;SDS011;76142;52.376;9.712;2024-03-23T02:15:59;18.40;;;4.85;;
85705;SDS011;76142;52.376;9.712;2024-03-23T02:18:25;25.30;;;5.88;;
85705;SDS011;76142;52.376;9.712;2024-03-23T02:20:51;15.93;;;5.00;;
85705;SDS011;76142;52.376;9.712;2024-03-23T02:23:17;27.50;;;7.15;;
85705;SDS011;76142;52.376;9.712;2024-03-23T02:25:43;26.02;;;6.82;;
85705;SDS011;76142;52.376;9.712;2024-03-23T02:28:09;23.70;;;6.50;;
85705;SDS011;76142;52.376;9.712;2024-03-23T02:30:35;22.20;;;6.97;;
85705;SDS011;76142;52.376;9.712;2024-03-23T02:33:00;24.05;;;6.97;;
85705;SDS011;76142;52.376;9.712;2024-03-23T02:35:26;25.15;;;6.63;;
85705;SDS011;76142;52.376;9.712;2024-03-23T02:37:52;22.23;;;6.82;;
85705;SDS011;76142;52.376;9.712;2024-03-23T02:40:19;22.85;;;6.47;;
85705;SDS011;76142;52.376;9.712;2024-03-23T02:42:45;23.55;;;6.65;;
85705;SDS011;76142;52.376;9.712;2024-03-23T02:45:11;24.77;;;6.82;;
85705;SDS011;76142;52.376;9.712;2024-03-23T02:47:37;25.70;;;7.60;;
85705;SDS011;76142;52.376;9.712;2024-03-23T02:50:02;22.70;;;6.63;;
85705;SDS011;76142;52.376;9.712;2024-03-23T02:52:29;22.77;;;6.88;;
85705;SDS011;76142;52.376;9.712;2024-03-23T02:54:55;23.15;;;7.35;;
85705;SDS011;76142;52.376;9.712;2024-03-23T02:57:20;20.80;;;7.55;;
85705;SDS011;76142;52.376;9.712;2024-03-23T02:59:46;24.13;;;6.97;;
85705;SDS011;76142;52.376;9.712;2024-03-23T03:02:12;22.73;;;6.80;;
85705;SDS011;76142;52.376;9.712;2024-03-23T03:04:39;23.35;;;6.75;;
85705;SDS011;76142;52.376;9.712;2024-03-23T03:07:04;15.23;;;5.95;;
85705;SDS011;76142;52.376;9.712;2024-03-23T03:09:30;23.52;;;6.80;;
85705;SDS011;76142;52.376;9.712;2024-03-23T03:11:56;22.73;;;6.25;;
85705;SDS011;76142;52.376;9.712;2024-03-23T03:14:22;21.38;;;6.57;;
85705;SDS011;76142;52.376;9.712;2024-03-23T03:16:48;21.10;;;6.03;;
85705;SDS011;76142;52.376;9.712;2024-03-23T03:19:13;29.95;;;6.90;;
85705;SDS011;76142;52.376;9.712;2024-03-23T03:21:39;23.90;;;6.30;;
85705;SDS011;76142;52.376;9.712;2024-03-23T03:24:05;19.23;;;7.53;;
85705;SDS011;76142;52.376;9.712;2024-03-23T03:26:31;20.45;;;7.10;;
85705;SDS011;76142;52.376;9.712;2024-03-23T03:28:57;16.80;;;7.00;;
85705;SDS011;76142;52.376;9.712;2024-03-23T03:31:23;21.45;;;6.88;;
85705;SDS011;76142;52.376;9.712;2024-03-23T03:33:49;19.10;;;7.28;;
85705;SDS011;76142;52.376;9.712;2024-03-23T03:36:16;28.77;;;7.70;;
85705;SDS011;76142;52.376;9.712;2024-03-23T03:38:42;25.92;;;7.20;;
85705;SDS011;76142;52.376;9.712;2024-03-23T03:41:07;20.80;;;5.72;;
85705;SDS011;76142;52.376;9.712;2024-03-23T03:43:33;21.33;;;5.55;;
85705;SDS011;76142;52.376;9.712;2024-03-23T03:45:59;19.38;;;5.60;;
85705;SDS011;76142;52.376;9.712;2024-03-23T03:48:26;22.77;;;5.40;;
85705;SDS011;76142;52.376;9.712;2024-03-23T03:50:52;15.38;;;4.55;;
85705;SDS011;76142;52.376;9.712;2024-03-23T03:53:18;17.55;;;4.90;;
85705;SDS011;76142;52.376;9.712;2024-03-23T03:55:44;22.05;;;5.13;;
85705;SDS011;76142;52.376;9.712;2024-03-23T03:58:10;15.48;;;5.05;;
85705;SDS011;76142;52.376;9.712;2024-03-23T04:00:37;22.13;;;5.65;;
85705;SDS011;76142;52.376;9.712;2024-03-23T04:03:03;18.95;;;6.40;;
85705;SDS011;76142;52.376;9.712;2024-03-23T04:05:28;25.10;;;6.38;;
85705;SDS011;76142;52.376;9.712;2024-03-23T04:07:54;20.65;;;6.28;;
85705;SDS011;76142;52.376;9.712;2024-03-23T04:10:20;23.40;;;6.78;;
85705;SDS011;76142;52.376;9.712;2024-03-23T04:12:46;23.38;;;6.70;;
85705;SDS011;76142;52.376;9.712;2024-03-23T04:15:12;27.08;;;7.32;;
85705;SDS011;76142;52.376;9.712;2024-03-23T04:17:38;27.35;;;6.57;;
85705;SDS011;76142;52.376;9.712;2024-03-23T04:20:04;26.08;;;7.28;;
85705;SDS011;76142;52.376;9.712;2024-03-23T04:22:39;23.55;;;7.45;;
85705;SDS011;76142;52.376;9.712;2024-03-23T04:25:05;22.27;;;4.65;;
85705;SDS011;76142;52.376;9.712;2024-03-23T04:27:36;18.85;;;6.10;;
85705;SDS011;76142;52.376;9.712;2024-03-23T04:30:02;15.85;;;4.57;;
85705;SDS011;76142;52.376;9.712;2024-03-23T04:32:29;14.68;;;4.57;;
85705;SDS011;76142;52.376;9.712;2024-03-23T04:34:56;18.30;;;4.30;;
85705;SDS011;76142;52.376;9.712;2024-03-23T04:37:21;14.25;;;3.60;;
85705;SDS011;76142;52.376;9.712;2024-03-23T04:39:47;13.88;;;3.28;;
85705;SDS011;76142;52.376;9.712;2024-03-23T04:42:16;18.98;;;3.60;;
85705;SDS011;76142;52.376;9.712;2024-03-23T04:44:42;14.07;;;3.53;;
85705;SDS011;76142;52.376;9.712;2024-03-23T04:47:08;11.90;;;3.08;;
85705;SDS011;76142;52.376;9.712;2024-03-23T04:49:33;18.40;;;3.63;;
85705;SDS011;76142;52.376;9.712;2024-03-23T04:52:01;16.85;;;3.92;;
85705;SDS011;76142;52.376;9.712;2024-03-23T04:54:30;13.10;;;3.45;;
85705;SDS011;76142;52.376;9.712;2024-03-23T04:56:57;18.00;;;3.75;;
85705;SDS011;76142;52.376;9.712;2024-03-23T04:59:23;20.25;;;4.57;;
85705;SDS011;76142;52.376;9.712;2024-03-23T05:01:48;19.90;;;4.13;;
85705;SDS011;76142;52.376;9.712;2024-03-23T05:04:14;17.30;;;3.83;;
85705;SDS011;76142;52.376;9.712;2024-03-23T05:06:40;23.02;;;4.82;;
85705;SDS011;76142;52.376;9.712;2024-03-23T05:09:05;20.50;;;4.95;;
85705;SDS011;76142;52.376;9.712;2024-03-23T05:11:32;18.20;;;5.07;;
85705;SDS011;76142;52.376;9.712;2024-03-23T05:13:58;18.45;;;4.80;;
85705;SDS011;76142;52.376;9.712;2024-03-23T05:16:25;14.80;;;4.38;;
85705;SDS011;76142;52.376;9.712;2024-03-23T05:18:51;18.77;;;4.60;;
85705;SDS011;76142;52.376;9.712;2024-03-23T05:21:17;25.35;;;5.70;;
85705;SDS011;76142;52.376;9.712;2024-03-23T05:23:42;16.20;;;4.40;;
85705;SDS011;76142;52.376;9.712;2024-03-23T05:26:08;19.17;;;4.18;;
85705;SDS011;76142;52.376;9.712;2024-03-23T05:28:34;12.15;;;2.80;;
85705;SDS011;76142;52.376;9.712;2024-03-23T05:31:00;10.77;;;3.17;;
85705;SDS011;76142;52.376;9.712;2024-03-23T05:33:26;10.73;;;2.30;;
85705;SDS011;76142;52.376;9.712;2024-03-23T05:35:58;14.13;;;3.08;;
85705;SDS011;76142;52.376;9.712;2024-03-23T05:38:25;12.00;;;2.40;;
85705;SDS011;76142;52.376;9.712;2024-03-23T05:41:02;15.60;;;2.22;;
85705;SDS011;76142;52.376;9.712;2024-03-23T05:43:27;8.68;;;1.70;;
85705;SDS011;76142;52.376;9.712;2024-03-23T05:45:57;11.00;;;2.05;;
85705;SDS011;76142;52.376;9.712;2024-03-23T05:48:23;6.38;;;1.67;;
85705;SDS011;76142;52.376;9.712;2024-03-23T05:50:50;7.88;;;2.05;;
85705;SDS011;76142;52.376;9.712;2024-03-23T05:53:16;9.88;;;1.55;;
85705;SDS011;76142;52.376;9.712;2024-03-23T05:55:42;7.75;;;1.80;;
85705;SDS011;76142;52.376;9.712;2024-03-23T05:58:08;12.15;;;2.10;;
85705;SDS011;76142;52.376;9.712;2024-03-23T06:00:35;11.85;;;2.17;;
85705;SDS011;76142;52.376;9.712;2024-03-23T06:03:01;11.18;;;2.28;;
85705;SDS011;76142;52.376;9.712;2024-03-23T06:05:27;13.90;;;2.53;;
85705;SDS011;76142;52.376;9.712;2024-03-23T06:07:52;11.23;;;2.28;;
85705;SDS011;76142;52.376;9.712;2024-03-23T06:10:18;15.30;;;2.60;;
85705;SDS011;76142;52.376;9.712;2024-03-23T06:12:45;14.57;;;2.78;;
85705;SDS011;76142;52.376;9.712;2024-03-23T06:15:11;10.75;;;2.80;;
85705;SDS011;76142;52.376;9.712;2024-03-23T06:17:37;11.88;;;2.85;;
85705;SDS011;76142;52.376;9.712;2024-03-23T06:20:03;12.30;;;3.25;;
85705;SDS011;76142;52.376;9.712;2024-03-23T06:22:31;21.48;;;3.78;;
85705;SDS011;76142;52.376;9.712;2024-03-23T06:24:57;21.83;;;3.50;;
85705;SDS011;76142;52.376;9.712;2024-03-23T06:27:22;15.32;;;4.40;;
85705;SDS011;76142;52.376;9.712;2024-03-23T06:29:48;14.98;;;3.38;;
85705;SDS011;76142;52.376;9.712;2024-03-23T06:32:14;13.93;;;3.50;;
85705;SDS011;76142;52.376;9.712;2024-03-23T06:34:42;16.27;;;4.40;;
85705;SDS011;76142;52.376;9.712;2024-03-23T06:37:08;17.83;;;5.18;;
85705;SDS011;76142;52.376;9.712;2024-03-23T06:39:37;11.95;;;3.90;;
85705;SDS011;76142;52.376;9.712;2024-03-23T06:42:03;18.35;;;4.20;;
85705;SDS011;76142;52.376;9.712;2024-03-23T06:44:29;12.55;;;4.88;;
85705;SDS011;76142;52.376;9.712;2024-03-23T06:46:55;27.13;;;4.63;;
85705;SDS011;76142;52.376;9.712;2024-03-23T06:49:23;21.67;;;4.45;;
85705;SDS011;76142;52.376;9.712;2024-03-23T06:51:49;21.73;;;5.07;;
85705;SDS011;76142;52.376;9.712;2024-03-23T06:54:16;19.60;;;4.35;;
85705;SDS011;76142;52.376;9.712;2024-03-23T06:56:43;13.90;;;4.43;;
85705;SDS011;76142;52.376;9.712;2024-03-23T06:59:09;16.25;;;4.43;;
85705;SDS011;76142;52.376;9.712;2024-03-23T07:01:35;20.30;;;5.07;;
85705;SDS011;76142;52.376;9.712;2024-03-23T07:04:00;20.17;;;4.80;;
85705;SDS011;76142;52.376;9.712;2024-03-23T07:06:26;20.92;;;5.18;;
85705;SDS011;76142;52.376;9.712;2024-03-23T07:08:52;23.77;;;7.63;;
85705;SDS011;76142;52.376;9.712;2024-03-23T07:11:21;35.67;;;9.50;;
85705;SDS011;76142;52.376;9.712;2024-03-23T07:13:50;17.25;;;5.22;;
85705;SDS011;76142;52.376;9.712;2024-03-23T07:16:17;23.70;;;6.53;;
85705;SDS011;76142;52.376;9.712;2024-03-23T07:18:43;20.00;;;6.50;;
85705;SDS011;76142;52.376;9.712;2024-03-23T07:21:09;33.47;;;8.35;;
85705;SDS011;76142;52.376;9.712;2024-03-23T07:23:35;25.45;;;7.22;;
85705;SDS011;76142;52.376;9.712;2024-03-23T07:26:01;25.52;;;7.63;;
85705;SDS011;76142;52.376;9.712;2024-03-23T07:28:29;27.77;;;7.15;;
85705;SDS011;76142;52.376;9.712;2024-03-23T07:31:10;27.23;;;7.75;;
85705;SDS011;76142;52.376;9.712;2024-03-23T07:33:37;26.83;;;7.65;;
85705;SDS011;76142;52.376;9.712;2024-03-23T07:36:06;35.92;;;8.10;;
85705;SDS011;76142;52.376;9.712;2024-03-23T07:38:32;26.85;;;7.95;;
85705;SDS011;76142;52.376;9.712;2024-03-23T07:43:33;36.22;;;8.30;;
85705;SDS011;76142;52.376;9.712;2024-03-23T07:45:59;25.25;;;7.47;;
85705;SDS011;76142;52.376;9.712;2024-03-23T07:48:26;34.47;;;8.63;;
85705;SDS011;76142;52.376;9.712;2024-03-23T07:51:16;35.60;;;8.68;;
85705;SDS011;76142;52.376;9.712;2024-03-23T07:53:44;37.33;;;10.07;;
85705;SDS011;76142;52.376;9.712;2024-03-23T07:56:11;38.63;;;9.65;;
85705;SDS011;76142;52.376;9.712;2024-03-23T07:58:37;36.60;;;9.40;;
85705;SDS011;76142;52.376;9.712;2024-03-23T08:01:04;35.65;;;10.27;;
85705;SDS011;76142;52.376;9.712;2024-03-23T08:03:34;32.50;;;9.52;;
85705;SDS011;76142;52.376;9.712;2024-03-23T08:08:33;35.50;;;9.85;;
85705;SDS011;76142;52.376;9.712;2024-03-23T08:10:59;41.25;;;10.70;;
85705;SDS011;76142;52.376;9.712;2024-03-23T08:13:25;39.85;;;10.55;;
85705;SDS011;76142;52.376;9.712;2024-03-23T08:15:51;42.08;;;11.20;;
85705;SDS011;76142;52.376;9.712;2024-03-23T08:18:17;35.85;;;10.10;;
85705;SDS011;76142;52.376;9.712;2024-03-23T08:20:42;29.58;;;10.45;;
85705;SDS011;76142;52.376;9.712;2024-03-23T08:23:08;39.50;;;9.00;;
85705;SDS011;76142;52.376;9.712;2024-03-23T08:25:34;30.10;;;8.88;;
85705;SDS011;76142;52.376;9.712;2024-03-23T08:28:00;36.17;;;9.15;;
85705;SDS011;76142;52.376;9.712;2024-03-23T08:30:26;37.45;;;9.52;;
85705;SDS011;76142;52.376;9.712;2024-03-23T08:32:53;30.70;;;8.55;;
85705;SDS011;76142;52.376;9.712;2024-03-23T08:35:18;32.30;;;9.02;;
85705;SDS011;76142;52.376;9.712;2024-03-23T08:37:45;28.88;;;8.30;;
85705;SDS011;76142;52.376;9.712;2024-03-23T08:40:10;27.25;;;7.18;;
85705;SDS011;76142;52.376;9.712;2024-03-23T08:42:36;23.30;;;6.70;;
85705;SDS011;76142;52.376;9.712;2024-03-23T08:45:02;27.10;;;7.15;;
85705;SDS011;76142;52.376;9.712;2024-03-23T08:47:28;21.42;;;6.10;;
85705;SDS011;76142;52.376;9.712;2024-03-23T08:49:53;19.75;;;5.88;;
85705;SDS011;76142;52.376;9.712;2024-03-23T08:52:20;17.98;;;5.20;;
85705;SDS011;76142;52.376;9.712;2024-03-23T08:54:48;23.95;;;5.32;;
85705;SDS011;76142;52.376;9.712;2024-03-23T08:57:13;18.42;;;5.28;;
85705;SDS011;76142;52.376;9.712;2024-03-23T08:59:39;25.05;;;5.68;;
85705;SDS011;76142;52.376;9.712;2024-03-23T09:02:05;19.60;;;5.00;;
85705;SDS011;76142;52.376;9.712;2024-03-23T09:04:30;16.30;;;4.70;;
85705;SDS011;76142;52.376;9.712;2024-03-23T09:06:56;23.15;;;5.65;;
85705;SDS011;76142;52.376;9.712;2024-03-23T09:09:24;17.15;;;5.68;;
85705;SDS011;76142;52.376;9.712;2024-03-23T09:11:49;28.42;;;5.97;;
85705;SDS011;76142;52.376;9.712;2024-03-23T09:14:15;28.83;;;6.13;;
85705;SDS011;76142;52.376;9.712;2024-03-23T09:16:41;21.30;;;5.55;;
85705;SDS011;76142;52.376;9.712;2024-03-23T09:19:06;26.20;;;5.90;;
85705;SDS011;76142;52.376;9.712;2024-03-23T09:21:32;18.58;;;5.38;;
85705;SDS011;76142;52.376;9.712;2024-03-23T09:23:58;25.02;;;6.15;;
85705;SDS011;76142;52.376;9.712;2024-03-23T09:26:23;24.27;;;5.68;;
85705;SDS011;76142;52.376;9.712;2024-03-23T09:28:49;19.65;;;5.72;;
85705;SDS011;76142;52.376;9.712;2024-03-23T09:31:15;24.00;;;5.30;;
85705;SDS011;76142;52.376;9.712;2024-03-23T09:33:41;23.65;;;5.32;;
85705;SDS011;76142;52.376;9.712;2024-03-23T09:36:07;22.70;;;4.80;;
85705;SDS011;76142;52.376;9.712;2024-03-23T09:38:33;18.63;;;4.93;;
85705;SDS011;76142;52.376;9.712;2024-03-23T09:40:59;18.13;;;5.13;;
85705;SDS011;76142;52.376;9.712;2024-03-23T09:43:25;16.77;;;4.50;;
85705;SDS011;76142;52.376;9.712;2024-03-23T09:45:51;19.90;;;4.50;;
85705;SDS011;76142;52.376;9.712;2024-03-23T09:48:17;14.40;;;4.22;;
85705;SDS011;76142;52.376;9.712;2024-03-23T09:50:44;16.75;;;2.90;;
85705;SDS011;76142;52.376;9.712;2024-03-23T09:53:11;12.27;;;2.95;;
85705;SDS011;76142;52.376;9.712;2024-03-23T09:55:38;12.15;;;2.65;;
85705;SDS011;76142;52.376;9.712;2024-03-23T09:58:05;16.50;;;2.83;;
85705;SDS011;76142;52.376;9.712;2024-03-23T10:00:31;14.48;;;2.70;;
85705;SDS011;76142;52.376;9.712;2024-03-23T10:03:00;15.93;;;2.90;;
85705;SDS011;76142;52.376;9.712;2024-03-23T10:05:30;13.00;;;2.53;;
85705;SDS011;76142;52.376;9.712;2024-03-23T10:08:02;13.18;;;2.83;;
85705;SDS011;76142;52.376;9.712;2024-03-23T10:10:44;9.57;;;2.97;;
85705;SDS011;76142;52.376;9.712;2024-03-23T10:13:10;12.80;;;2.70;;
85705;SDS011;76142;52.376;9.712;2024-03-23T10:15:38;15.73;;;2.53;;
85705;SDS011;76142;52.376;9.712;2024-03-23T10:18:17;17.80;;;2.80;;
85705;SDS011;76142;52.376;9.712;2024-03-23T10:20:47;13.23;;;2.20;;
85705;SDS011;76142;52.376;9.712;2024-03-23T10:23:16;11.38;;;3.03;;
85705;SDS011;76142;52.376;9.712;2024-03-23T10:25:42;12.02;;;2.40;;
85705;SDS011;76142;52.376;9.712;2024-03-23T10:28:08;10.68;;;2.40;;
85705;SDS011;76142;52.376;9.712;2024-03-23T10:30:36;14.05;;;3.13;;
85705;SDS011;76142;52.376;9.712;2024-03-23T10:33:09;14.05;;;2.45;;
85705;SDS011;76142;52.376;9.712;2024-03-23T10:35:36;12.55;;;2.42;;
85705;SDS011;76142;52.376;9.712;2024-03-23T10:38:06;9.48;;;2.13;;
85705;SDS011;76142;52.376;9.712;2024-03-23T10:40:35;12.77;;;2.78;;
85705;SDS011;76142;52.376;9.712;2024-03-23T10:43:02;9.82;;;2.63;;
85705;SDS011;76142;52.376;9.712;2024-03-23T10:45:29;7.88;;;3.10;;
85705;SDS011;76142;52.376;9.712;2024-03-23T10:47:55;7.70;;;1.85;;
85705;SDS011;76142;52.376;9.712;2024-03-23T10:50:21;8.82;;;1.90;;
85705;SDS011;76142;52.376;9.712;2024-03-23T10:52:48;4.75;;;1.40;;
85705;SDS011;76142;52.376;9.712;2024-03-23T10:55:16;7.60;;;2.30;;
85705;SDS011;76142;52.376;9.712;2024-03-23T10:57:50;6.05;;;2.05;;
85705;SDS011;76142;52.376;9.712;2024-03-23T11:00:19;6.43;;;1.90;;
85705;SDS011;76142;52.376;9.712;2024-03-23T11:02:46;5.15;;;1.40;;
85705;SDS011;76142;52.376;9.712;2024-03-23T11:07:51;4.28;;;1.42;;
85705;SDS011;76142;52.376;9.712;2024-03-23T11:10:27;4.93;;;1.35;;
85705;SDS011;76142;52.376;9.712;2024-03-23T11:12:58;6.78;;;1.77;;
85705;SDS011;76142;52.376;9.712;2024-03-23T11:15:43;6.13;;;1.98;;
85705;SDS011;76142;52.376;9.712;2024-03-23T11:18:09;5.00;;;1.65;;
85705;SDS011;76142;52.376;9.712;2024-03-23T11:20:43;8.07;;;2.35;;
85705;SDS011;76142;52.376;9.712;2024-03-23T11:23:09;7.10;;;1.80;;
85705;SDS011;76142;52.376;9.712;2024-03-23T11:25:52;7.45;;;2.40;;
85705;SDS011;76142;52.376;9.712;2024-03-23T11:28:18;10.30;;;3.05;;
85705;SDS011;76142;52.376;9.712;2024-03-23T11:30:44;5.90;;;2.65;;
85705;SDS011;76142;52.376;9.712;2024-03-23T11:33:10;9.00;;;2.45;;
85705;SDS011;76142;52.376;9.712;2024-03-23T11:35:38;6.93;;;2.80;;
85705;SDS011;76142;52.376;9.712;2024-03-23T11:38:08;10.85;;;2.55;;
85705;SDS011;76142;52.376;9.712;2024-03-23T11:40:42;10.77;;;2.90;;
85705;SDS011;76142;52.376;9.712;2024-03-23T11:43:11;7.07;;;3.08;;
85705;SDS011;76142;52.376;9.712;2024-03-23T11:48:05;7.22;;;2.63;;
85705;SDS011;76142;52.376;9.712;2024-03-23T11:50:32;8.15;;;2.80;;
85705;SDS011;76142;52.376;9.712;2024-03-23T11:55:48;5.45;;;1.70;;
85705;SDS011;76142;52.376;9.712;2024-03-23T11:58:19;4.55;;;1.35;;
85705;SDS011;76142;52.376;9.712;2024-03-23T12:03:23;3.53;;;1.40;;
85705;SDS011;76142;52.376;9.712;2024-03-23T12:05:54;2.58;;;1.20;;
85705;SDS011;76142;52.376;9.712;2024-03-23T12:11:11;5.38;;;1.48;;
85705;SDS011;76142;52.376;9.712;2024-03-23T12:13:38;3.88;;;1.60;;
85705;SDS011;76142;52.376;9.712;2024-03-23T12:18:43;6.45;;;1.90;;
85705;SDS011;76142;52.376;9.712;2024-03-23T12:21:09;2.35;;;1.50;;
85705;SDS011;76142;52.376;9.712;2024-03-23T12:23:35;4.30;;;1.52;;
85705;SDS011;76142;52.376;9.712;2024-03-23T12:26:04;3.38;;;1.27;;
85705;SDS011;76142;52.376;9.712;2024-03-23T12:28:29;1.95;;;1.50;;
85705;SDS011;76142;52.376;9.712;2024-03-23T12:30:55;7.20;;;1.65;;
85705;SDS011;76142;52.376;9.712;2024-03-23T12:33:22;4.10;;;1.40;;
85705;SDS011;76142;52.376;9.712;2024-03-23T12:35:48;3.28;;;1.38;;
85705;SDS011;76142;52.376;9.712;2024-03-23T12:38:17;6.93;;;1.60;;
85705;SDS011;76142;52.376;9.712;2024-03-23T12:40:47;7.85;;;1.60;;
85705;SDS011;76142;52.376;9.712;2024-03-23T12:43:13;7.57;;;1.73;;
85705;SDS011;76142;52.376;9.712;2024-03-23T12:45:39;6.28;;;1.90;;
85705;SDS011;76142;52.376;9.712;2024-03-23T12:48:05;4.38;;;1.45;;
85705;SDS011;76142;52.376;9.712;2024-03-23T12:50:31;1.38;;;0.85;;
85705;SDS011;76142;52.376;9.712;2024-03-23T12:52:58;4.50;;;0.90;;
85705;SDS011;76142;52.376;9.712;2024-03-23T12:55:24;3.75;;;0.98;;
85705;SDS011;76142;52.376;9.712;2024-03-23T12:57:51;2.25;;;0.70;;
85705;SDS011;76142;52.376;9.712;2024-03-23T13:00:17;1.92;;;0.90;;
85705;SDS011;76142;52.376;9.712;2024-03-23T13:02:43;3.67;;;0.63;;
85705;SDS011;76142;52.376;9.712;2024-03-23T13:05:09;3.10;;;1.00;;
85705;SDS011;76142;52.376;9.712;2024-03-23T13:07:35;2.47;;;0.98;;
85705;SDS011;76142;52.376;9.712;2024-03-23T13:10:02;2.47;;;0.95;;
85705;SDS011;76142;52.376;9.712;2024-03-23T13:12:29;2.70;;;1.13;;
85705;SDS011;76142;52.376;9.712;2024-03-23T13:14:54;4.82;;;0.90;;
85705;SDS011;76142;52.376;9.712;2024-03-23T13:17:20;2.50;;;0.95;;
85705;SDS011;76142;52.376;9.712;2024-03-23T13:19:46;3.28;;;1.45;;
85705;SDS011;76142;52.376;9.712;2024-03-23T13:22:11;6.78;;;1.52;;
85705;SDS011;76142;52.376;9.712;2024-03-23T13:24:38;5.00;;;1.20;;
85705;SDS011;76142;52.376;9.712;2024-03-23T13:27:08;4.75;;;1.48;;
85705;SDS011;76142;52.376;9.712;2024-03-23T13:29:35;2.92;;;1.30;;
85705;SDS011;76142;52.376;9.712;2024-03-23T13:32:02;4.10;;;1.13;;
85705;SDS011;76142;52.376;9.712;2024-03-23T13:34:28;4.05;;;1.25;;
85705;SDS011;76142;52.376;9.712;2024-03-23T13:36:54;5.28;;;1.10;;
85705;SDS011;76142;52.376;9.712;2024-03-23T13:39:23;3.58;;;0.95;;
85705;SDS011;76142;52.376;9.712;2024-03-23T13:41:49;2.70;;;1.02;;
85705;SDS011;76142;52.376;9.712;2024-03-23T13:44:15;3.47;;;1.00;;
85705;SDS011;76142;52.376;9.712;2024-03-23T13:46:41;2.40;;;1.00;;
85705;SDS011;76142;52.376;9.712;2024-03-23T13:49:29;6.85;;;1.08;;
85705;SDS011;76142;52.376;9.712;2024-03-23T13:51:56;2.88;;;0.80;;
85705;SDS011;76142;52.376;9.712;2024-03-23T13:54:26;1.65;;;0.60;;
85705;SDS011;76142;52.376;9.712;2024-03-23T13:56:52;3.22;;;0.90;;
85705;SDS011;76142;52.376;9.712;2024-03-23T13:59:19;2.97;;;0.80;;
85705;SDS011;76142;52.376;9.712;2024-03-23T14:01:46;3.42;;;0.77;;
85705;SDS011;76142;52.376;9.712;2024-03-23T14:04:12;2.30;;;0.88;;
85705;SDS011;76142;52.376;9.712;2024-03-23T14:06:38;4.30;;;0.90;;
85705;SDS011;76142;52.376;9.712;2024-03-23T14:09:05;6.53;;;1.00;;
85705;SDS011;76142;52.376;9.712;2024-03-23T14:11:34;3.17;;;0.77;;
85705;SDS011;76142;52.376;9.712;2024-03-23T14:14:02;4.00;;;1.05;;
85705;SDS011;76142;52.376;9.712;2024-03-23T14:16:29;3.47;;;1.05;;
85705;SDS011;76142;52.376;9.712;2024-03-23T14:18:58;3.35;;;1.15;;
85705;SDS011;76142;52.376;9.712;2024-03-23T14:21:24;2.92;;;1.20;;
85705;SDS011;76142;52.376;9.712;2024-03-23T14:23:50;4.43;;;1.45;;
85705;SDS011;76142;52.376;9.712;2024-03-23T14:26:16;2.72;;;1.10;;
85705;SDS011;76142;52.376;9.712;2024-03-23T14:28:42;3.28;;;1.30;;
85705;SDS011;76142;52.376;9.712;2024-03-23T14:31:07;2.85;;;0.98;;
85705;SDS011;76142;52.376;9.712;2024-03-23T14:33:36;3.92;;;1.23;;
85705;SDS011;76142;52.376;9.712;2024-03-23T14:36:03;4.70;;;2.08;;
85705;SDS011;76142;52.376;9.712;2024-03-23T14:38:29;4.03;;;1.00;;
85705;SDS011;76142;52.376;9.712;2024-03-23T14:40:59;2.70;;;0.77;;
85705;SDS011;76142;52.376;9.712;2024-03-23T14:43:25;1.75;;;0.80;;
85705;SDS011;76142;52.376;9.712;2024-03-23T14:48:33;2.13;;;0.60;;
85705;SDS011;76142;52.376;9.712;2024-03-23T14:50:59;4.43;;;0.47;;
85705;SDS011;76142;52.376;9.712;2024-03-23T14:53:26;2.83;;;0.60;;
85705;SDS011;76142;52.376;9.712;2024-03-23T14:55:55;4.43;;;0.98;;
85705;SDS011;76142;52.376;9.712;2024-03-23T14:58:21;5.68;;;0.77;;
85705;SDS011;76142;52.376;9.712;2024-03-23T15:00:50;2.95;;;0.90;;
85705;SDS011;76142;52.376;9.712;2024-03-23T15:03:19;2.45;;;0.70;;
85705;SDS011;76142;52.376;9.712;2024-03-23T15:05:52;3.08;;;0.63;;
85705;SDS011;76142;52.376;9.712;2024-03-23T15:08:19;3.50;;;0.93;;
85705;SDS011;76142;52.376;9.712;2024-03-23T15:10:44;1.58;;;0.65;;
85705;SDS011;76142;52.376;9.712;2024-03-23T15:13:10;2.05;;;0.95;;
85705;SDS011;76142;52.376;9.712;2024-03-23T15:15:39;61.17;;;25.83;;
85705;SDS011;76142;52.376;9.712;2024-03-23T15:18:08;5.45;;;1.73;;
85705;SDS011;76142;52.376;9.712;2024-03-23T15:20:41;5.63;;;1.20;;
85705;SDS011;76142;52.376;9.712;2024-03-23T15:23:09;3.83;;;0.73;;
85705;SDS011;76142;52.376;9.712;2024-03-23T15:25:35;5.85;;;1.23;;
85705;SDS011;76142;52.376;9.712;2024-03-23T15:28:01;2.45;;;0.65;;
85705;SDS011;76142;52.376;9.712;2024-03-23T15:30:27;4.43;;;1.05;;
85705;SDS011;76142;52.376;9.712;2024-03-23T15:32:53;3.97;;;0.73;;
85705;SDS011;76142;52.376;9.712;2024-03-23T15:35:19;19.92;;;7.50;;
85705;SDS011;76142;52.376;9.712;2024-03-23T15:37:47;60.95;;;22.80;;
85705;SDS011;76142;52.376;9.712;2024-03-23T15:40:13;3.85;;;1.45;;
85705;SDS011;76142;52.376;9.712;2024-03-23T15:42:39;7.30;;;1.20;;
85705;SDS011;76142;52.376;9.712;2024-03-23T15:45:08;2.75;;;0.80;;
85705;SDS011;76142;52.376;9.712;2024-03-23T15:47:36;3.30;;;0.93;;
85705;SDS011;76142;52.376;9.712;2024-03-23T15:50:02;6.13;;;1.38;;
85705;SDS011;76142;52.376;9.712;2024-03-23T15:52:33;3.97;;;1.10;;